Main page
METAR-TAF:

METAR-TAF

Airports :

L.F. Wade International Airport

Bermuda, Bermuda

latitude: 32-22N, longitude: 064-41W, elevation: 6 m

Current weather observation

The report was made 1 hour and 0 minutes ago, at 15:55 UTC
Wind 7 kt from the West/Northwest, varying between West and North/Northwest
Temperature 26°C
Humidity 70%
Pressure 1016 hPa
Visibility 10 km or more
Few clouds at a height of 2800 ft
Few clouds at a height of 5000 ft
Scattered clouds at a height of 30000 ft

METAR: TXKF 231555Z 29007KT 260V330 9999 FEW028 FEW050 SCT300 26/20 Q1016

Time: 13:55 (16:55 UTC)

Forecast

The report was made 5 hours and 25 minutes ago, at 11:30 UTC
Forecast valid from 23 at 12 UTC to 24 at 12 UTC
Wind 6 kt from the Northwest
Visibility 10 km or more
Few clouds at a height of 2000 ft

TAF: TXKF 231130Z 2312/2412 31006KT 9999 FEW020

Weather observations and forecasts of more than 4000 airports (METAR and TAF reports).

The available stations are represented by yellow and red dots on the map.

Hover mouse over dot to see the name of the station.

Then click to see weather observations and forecasts.

To change the map : click on the green buttons with a black cross to zoom in, on the green button with a dash to zoom out, or on the green arrows for adjacent maps.


METAR-TAF: